Time;durP1;ratioP1;P1;durP2;ratioP2;P2;SDS_P1;SDS_P2;PMS_P1;PMS_P2;Temp;Humidity;BMP_temperature;BMP_pressure;BME280_temperature;BME280_humidity;BME280_pressure;Samples;Min_cycle;Max_cycle;Signal;HPM_P1;HPM_P2
2024/01/10 00:01:26;;;;;;;82.90;45.15;;;-5.80;85.10;;;;;;5114129;28;20032;-70
2024/01/10 00:03:55;;;;;;;81.93;47.72;;;-5.80;85.10;;;;;;5114824;28;20027;-70
2024/01/10 00:06:21;;;;;;;88.90;50.67;;;-5.80;85.40;;;;;;5114385;28;20062;-70
2024/01/10 00:08:46;;;;;;;78.75;47.60;;;-5.90;84.60;;;;;;5106314;28;20043;-70
2024/01/10 00:11:12;;;;;;;80.75;44.63;;;-5.90;84.60;;;;;;5092683;28;20081;-69
2024/01/10 00:13:38;;;;;;;84.53;51.30;;;-5.90;84.70;;;;;;5094343;28;20024;-69
2024/01/10 00:16:04;;;;;;;87.45;49.20;;;-5.90;84.70;;;;;;5094273;28;20172;-69
2024/01/10 00:18:30;;;;;;;81.47;49.95;;;-6.00;84.90;;;;;;5093517;28;20020;-69
2024/01/10 00:20:55;;;;;;;83.13;48.92;;;-6.00;85.10;;;;;;5094202;28;20074;-71
2024/01/10 00:23:22;;;;;;;82.95;49.97;;;-6.00;85.00;;;;;;5093823;28;20020;-70
2024/01/10 00:25:48;;;;;;;84.43;50.40;;;-6.10;85.10;;;;;;5094068;28;20075;-70
2024/01/10 00:28:16;;;;;;;86.05;50.50;;;-6.00;85.40;;;;;;5093905;28;20024;-72
2024/01/10 00:30:42;;;;;;;91.78;51.58;;;-6.10;85.20;;;;;;5094122;28;20032;-70
2024/01/10 00:33:07;;;;;;;82.90;50.38;;;-6.10;85.10;;;;;;5093602;28;20116;-70
2024/01/10 00:35:33;;;;;;;82.38;49.35;;;-6.10;85.30;;;;;;5093565;28;20524;-69
2024/01/10 00:37:59;;;;;;;90.30;51.47;;;-6.10;85.30;;;;;;5094007;28;20321;-70
2024/01/10 00:40:25;;;;;;;87.55;50.38;;;-6.10;85.60;;;;;;5093403;28;20234;-70
2024/01/10 00:42:50;;;;;;;87.43;51.28;;;-6.10;85.70;;;;;;5093433;28;20132;-70
2024/01/10 00:45:16;;;;;;;90.80;52.08;;;-6.10;85.80;;;;;;5093401;28;20067;-70
2024/01/10 00:47:42;;;;;;;87.40;52.03;;;-6.10;86.00;;;;;;5093518;28;20028;-70
2024/01/10 00:50:08;;;;;;;83.22;49.65;;;-6.20;85.80;;;;;;5093290;28;20027;-70
2024/01/10 00:52:35;;;;;;;88.20;51.13;;;-6.20;85.70;;;;;;5093300;28;20039;-70
2024/01/10 00:55:05;;;;;;;91.00;52.45;;;-6.20;85.90;;;;;;5093572;28;20397;-70
2024/01/10 00:57:31;;;;;;;90.78;52.30;;;-6.20;85.90;;;;;;5092336;28;20036;-70
2024/01/10 00:59:57;;;;;;;89.70;51.72;;;-6.20;86.00;;;;;;5092974;28;20052;-71
2024/01/10 01:02:24;;;;;;;89.53;52.63;;;-6.30;85.80;;;;;;5092996;28;20024;-71
2024/01/10 01:04:50;;;;;;;88.35;51.08;;;-6.30;85.90;;;;;;5093102;28;20032;-70
2024/01/10 01:07:16;;;;;;;86.05;51.97;;;-6.30;85.90;;;;;;5092992;28;20030;-71
2024/01/10 01:09:42;;;;;;;90.88;50.03;;;-6.30;86.00;;;;;;5093104;28;20080;-71
2024/01/10 01:12:08;;;;;;;90.75;54.00;;;-6.40;86.10;;;;;;5093178;28;20104;-71
2024/01/10 01:14:35;;;;;;;93.05;52.40;;;-6.40;86.20;;;;;;5091263;28;20024;-71
2024/01/10 01:17:01;;;;;;;93.63;53.08;;;-6.40;86.50;;;;;;5093121;28;20373;-71
2024/01/10 01:19:27;;;;;;;90.03;52.28;;;-6.40;86.80;;;;;;5092189;28;20397;-71
2024/01/10 01:21:53;;;;;;;90.07;52.47;;;-6.40;87.20;;;;;;5093017;28;20031;-71
2024/01/10 01:24:19;;;;;;;90.72;53.22;;;-6.40;87.20;;;;;;5092589;28;20024;-71
2024/01/10 01:26:45;;;;;;;90.47;52.38;;;-6.50;87.50;;;;;;5092761;28;20024;-70
2024/01/10 01:29:10;;;;;;;94.78;53.80;;;-6.50;87.60;;;;;;5093094;28;20486;-69
2024/01/10 01:31:37;;;;;;;94.82;54.78;;;-6.40;87.50;;;;;;5091001;28;20074;-70
2024/01/10 01:34:03;;;;;;;96.63;50.75;;;-6.40;87.50;;;;;;5092950;28;20040;-70
2024/01/10 01:36:29;;;;;;;90.80;53.30;;;-6.50;87.50;;;;;;5092567;28;20032;-71
2024/01/10 01:38:55;;;;;;;92.78;54.55;;;-6.50;88.10;;;;;;5091231;28;20024;-71
2024/01/10 01:41:21;;;;;;;92.15;53.72;;;-6.50;87.70;;;;;;5092256;28;20024;-71
2024/01/10 01:43:48;;;;;;;92.70;56.20;;;-6.50;87.60;;;;;;5092323;28;20029;-70
2024/01/10 01:46:14;;;;;;;89.60;54.17;;;-6.50;87.60;;;;;;5104264;28;20031;-71
2024/01/10 01:48:41;;;;;;;93.10;55.88;;;-6.50;87.50;;;;;;5112856;28;20028;-71
2024/01/10 01:51:09;;;;;;;100.90;52.63;;;-6.50;87.70;;;;;;5112936;28;20028;-71
2024/01/10 01:53:36;;;;;;;92.38;56.35;;;-6.60;87.50;;;;;;5112113;28;20085;-71
2024/01/10 01:56:06;;;;;;;95.90;55.05;;;-6.60;87.30;;;;;;5112443;28;20080;-71
2024/01/10 01:58:32;;;;;;;95.57;56.60;;;-6.60;87.10;;;;;;5110609;28;20354;-70
2024/01/10 02:00:59;;;;;;;93.25;56.47;;;-6.60;87.30;;;;;;5112227;28;20103;-71
2024/01/10 02:03:26;;;;;;;97.28;52.30;;;-6.60;87.30;;;;;;5112331;28;20163;-71
2024/01/10 02:05:53;;;;;;;95.93;57.88;;;-6.60;87.40;;;;;;5111443;28;20035;-72
2024/01/10 02:08:19;;;;;;;89.97;54.20;;;-6.70;87.50;;;;;;5111932;28;20024;-72
2024/01/10 02:10:44;;;;;;;97.13;57.60;;;-6.60;87.90;;;;;;5112579;28;20371;-71
2024/01/10 02:13:11;;;;;;;100.18;57.08;;;-6.70;87.80;;;;;;5098079;28;20512;-70
2024/01/10 02:15:38;;;;;;;94.30;51.65;;;-6.70;88.00;;;;;;5091712;28;20024;-70
2024/01/10 02:18:05;;;;;;;98.03;51.65;;;-6.80;88.30;;;;;;5092048;28;20056;-70
2024/01/10 02:20:31;;;;;;;102.65;58.28;;;-6.80;88.70;;;;;;5091685;28;20032;-70
2024/01/10 02:22:57;;;;;;;102.88;58.67;;;-6.70;88.90;;;;;;5091853;28;20032;-70
2024/01/10 02:25:22;;;;;;;100.03;52.38;;;-6.80;88.80;;;;;;5091813;28;20028;-71
2024/01/10 02:27:48;;;;;;;100.10;56.97;;;-6.80;89.20;;;;;;5092125;28;20165;-70
2024/01/10 02:30:14;;;;;;;99.32;58.03;;;-6.80;89.40;;;;;;5091837;28;20046;-71
2024/01/10 02:32:40;;;;;;;102.18;53.70;;;-6.80;89.30;;;;;;5091155;28;20056;-71
2024/01/10 02:35:06;;;;;;;94.47;51.55;;;-6.90;89.50;;;;;;5091682;28;20038;-71
2024/01/10 02:37:32;;;;;;;100.82;53.85;;;-6.90;89.90;;;;;;5091184;28;20024;-71
2024/01/10 02:39:58;;;;;;;106.43;54.78;;;-6.90;90.00;;;;;;5091820;28;20366;-70
2024/01/10 02:42:23;;;;;;;101.68;52.88;;;-6.90;90.10;;;;;;5091253;28;20036;-70
2024/01/10 02:44:49;;;;;;;100.80;52.85;;;-6.90;90.20;;;;;;5091355;28;20099;-71
2024/01/10 02:47:15;;;;;;;103.20;57.22;;;-6.90;90.30;;;;;;5091696;28;20111;-71
2024/01/10 02:49:40;;;;;;;98.20;53.53;;;-6.90;90.40;;;;;;5091354;28;20028;-71
2024/01/10 02:52:06;;;;;;;97.30;56.92;;;-6.90;90.40;;;;;;5091296;28;20024;-71
2024/01/10 02:54:32;;;;;;;103.05;54.83;;;-6.90;90.40;;;;;;5090614;28;20082;-71
2024/01/10 02:56:57;;;;;;;99.18;52.25;;;-6.90;90.50;;;;;;5091722;28;20045;-71
2024/01/10 02:59:23;;;;;;;105.75;54.75;;;-6.90;90.60;;;;;;5091138;28;20388;-72
2024/01/10 03:01:48;;;;;;;101.13;53.85;;;-6.90;90.60;;;;;;5091183;28;20090;-71
2024/01/10 03:04:14;;;;;;;101.63;54.88;;;-6.90;90.70;;;;;;5091383;28;20508;-71
2024/01/10 03:06:40;;;;;;;99.38;52.03;;;-6.90;90.80;;;;;;5090913;28;20103;-71
2024/01/10 03:09:05;;;;;;;101.03;53.70;;;-7.00;90.90;;;;;;5091554;28;20039;-71
2024/01/10 03:11:33;;;;;;;101.32;59.25;;;-6.90;91.00;;;;;;5093337;28;20130;-70
2024/01/10 03:14:04;;;;;;;100.50;55.17;;;-6.90;91.00;;;;;;5095084;28;20017;-71
2024/01/10 03:16:30;;;;;;;110.50;57.10;;;-7.00;90.90;;;;;;5094888;28;20415;-71
2024/01/10 03:18:55;;;;;;;110.93;63.15;;;-7.00;91.00;;;;;;5095041;28;20024;-72
2024/01/10 03:21:24;;;;;;;106.15;61.97;;;-7.00;91.10;;;;;;5094032;28;20460;-70
2024/01/10 03:24:00;;;;;;;116.30;58.72;;;-7.00;91.10;;;;;;5094896;28;20399;-71
2024/01/10 03:26:27;;;;;;;109.70;64.53;;;-7.00;91.20;;;;;;5094893;28;20020;-71
2024/01/10 03:28:52;;;;;;;113.88;59.10;;;-7.00;91.30;;;;;;5093786;28;20027;-72
2024/01/10 03:31:18;;;;;;;105.05;62.25;;;-7.10;91.20;;;;;;5094777;28;20429;-71
2024/01/10 03:33:44;;;;;;;103.25;62.08;;;-7.10;91.20;;;;;;5093303;28;20272;-71
2024/01/10 03:36:13;;;;;;;108.13;56.70;;;-7.10;91.30;;;;;;5093678;28;20031;-71
2024/01/10 03:38:39;;;;;;;108.72;57.25;;;-7.10;91.40;;;;;;5094539;28;20139;-72
2024/01/10 03:41:04;;;;;;;104.10;55.60;;;-7.10;91.40;;;;;;5094866;28;20192;-71
2024/01/10 03:43:30;;;;;;;98.95;55.88;;;-7.00;91.50;;;;;;5104503;28;20056;-72
2024/01/10 03:45:57;;;;;;;110.93;57.67;;;-7.10;91.60;;;;;;5113624;28;20031;-71
2024/01/10 03:48:23;;;;;;;104.93;57.33;;;-7.00;91.60;;;;;;5115530;28;20035;-71
2024/01/10 03:50:48;;;;;;;113.93;58.30;;;-7.00;91.60;;;;;;5114226;28;20388;-70
2024/01/10 03:53:14;;;;;;;114.93;58.05;;;-7.00;91.50;;;;;;5115089;28;20023;-71
2024/01/10 03:55:40;;;;;;;111.40;58.20;;;-7.00;91.60;;;;;;5114313;28;20024;-71
2024/01/10 03:58:06;;;;;;;107.38;57.83;;;-7.00;91.60;;;;;;5114809;28;20028;-71
2024/01/10 04:00:31;;;;;;;104.03;56.13;;;-7.00;91.40;;;;;;5114603;28;20108;-71
2024/01/10 04:02:57;;;;;;;108.07;57.17;;;-7.00;91.50;;;;;;5114453;28;20031;-71
2024/01/10 04:05:25;;;;;;;109.88;56.80;;;-6.90;91.60;;;;;;5114502;28;20059;-71
2024/01/10 04:07:51;;;;;;;105.18;56.92;;;-6.90;91.60;;;;;;5114013;28;20114;-71
2024/01/10 04:10:17;;;;;;;110.50;59.22;;;-6.80;91.60;;;;;;5097267;28;20082;-71
2024/01/10 04:12:43;;;;;;;107.47;56.92;;;-6.80;91.50;;;;;;5093799;28;20028;-71
2024/01/10 04:15:09;;;;;;;110.90;59.22;;;-6.80;91.30;;;;;;5094207;28;20024;-71
2024/01/10 04:17:35;;;;;;;110.20;56.53;;;-6.90;91.20;;;;;;5093677;28;20513;-72
2024/01/10 04:20:01;;;;;;;107.07;55.95;;;-6.90;91.30;;;;;;5094083;28;20027;-71
2024/01/10 04:22:27;;;;;;;109.47;58.97;;;-6.80;91.50;;;;;;5092758;28;20476;-71
2024/01/10 04:24:52;;;;;;;106.32;61.67;;;-6.90;91.60;;;;;;5093720;28;20041;-72
2024/01/10 04:27:18;;;;;;;108.07;57.95;;;-6.90;91.50;;;;;;5093866;28;20073;-71
2024/01/10 04:29:44;;;;;;;106.95;58.00;;;-6.90;91.40;;;;;;5098983;28;20476;-71
2024/01/10 04:32:10;;;;;;;110.40;58.28;;;-6.90;91.70;;;;;;5102528;28;20067;-71
2024/01/10 04:34:35;;;;;;;116.18;58.15;;;-6.90;91.80;;;;;;5110404;28;20059;-72
2024/01/10 04:37:01;;;;;;;114.65;57.25;;;-6.90;92.10;;;;;;5093490;28;20488;-71
2024/01/10 04:39:27;;;;;;;107.82;57.85;;;-6.90;92.20;;;;;;5099175;28;20028;-71
2024/01/10 04:41:53;;;;;;;109.10;59.08;;;-6.80;92.20;;;;;;5099133;28;20036;-71
2024/01/10 04:44:18;;;;;;;111.68;58.83;;;-6.90;92.30;;;;;;5101857;28;20488;-72
2024/01/10 04:46:44;;;;;;;111.45;57.60;;;-6.80;92.40;;;;;;5103676;28;20078;-72
2024/01/10 04:49:10;;;;;;;113.68;58.22;;;-6.80;92.40;;;;;;5108028;28;20077;-72
2024/01/10 04:51:35;;;;;;;113.57;58.65;;;-6.80;92.40;;;;;;5113521;28;20050;-72
2024/01/10 04:54:01;;;;;;;119.68;59.17;;;-6.80;92.40;;;;;;5108596;28;20055;-72
2024/01/10 04:56:26;;;;;;;115.80;60.80;;;-6.90;92.30;;;;;;5093471;28;20197;-72
2024/01/10 04:58:52;;;;;;;108.05;58.83;;;-6.90;92.60;;;;;;5092891;28;20056;-72
2024/01/10 05:01:18;;;;;;;110.82;61.13;;;-6.90;92.90;;;;;;5095530;28;20107;-72
2024/01/10 05:03:44;;;;;;;114.88;60.80;;;-6.90;93.10;;;;;;5092914;28;20560;-72
2024/01/10 05:06:10;;;;;;;115.53;58.95;;;-6.90;93.30;;;;;;5113253;28;20455;-72
2024/01/10 05:08:35;;;;;;;111.38;59.97;;;-6.90;93.20;;;;;;5113218;28;20384;-72
2024/01/10 05:11:01;;;;;;;120.55;60.70;;;-6.90;93.10;;;;;;5113455;28;20030;-72
2024/01/10 05:13:26;;;;;;;111.55;59.13;;;-6.90;93.10;;;;;;5104050;28;20062;-72
2024/01/10 05:15:52;;;;;;;119.80;61.13;;;-6.90;93.20;;;;;;5092810;28;20352;-73
2024/01/10 05:18:18;;;;;;;113.68;59.33;;;-6.90;93.20;;;;;;5113424;28;20103;-72
2024/01/10 05:20:44;;;;;;;116.05;61.97;;;-6.80;93.30;;;;;;5113053;28;20373;-72
2024/01/10 05:23:10;;;;;;;109.70;59.08;;;-6.90;93.60;;;;;;5113292;28;20035;-72
2024/01/10 05:25:36;;;;;;;117.50;60.05;;;-6.90;93.50;;;;;;5112978;28;20030;-72
2024/01/10 05:28:01;;;;;;;115.47;61.97;;;-6.90;93.60;;;;;;5113188;28;20023;-71
2024/01/10 05:30:27;;;;;;;106.38;55.92;;;-6.90;93.70;;;;;;5100577;28;20055;-72
2024/01/10 05:32:53;;;;;;;112.85;57.25;;;-6.80;94.10;;;;;;5092211;28;20030;-72
2024/01/10 05:35:18;;;;;;;112.97;58.45;;;-6.80;94.20;;;;;;5092765;28;20387;-72
2024/01/10 05:37:44;;;;;;;108.40;53.63;;;-6.80;94.20;;;;;;5092124;28;20024;-72
2024/01/10 05:40:10;;;;;;;106.45;56.40;;;-6.80;94.30;;;;;;5092665;28;20055;-71
2024/01/10 05:42:37;;;;;;;103.75;55.28;;;-6.70;94.60;;;;;;5091703;28;20068;-73
2024/01/10 05:45:04;;;;;;;102.82;55.00;;;-6.70;94.70;;;;;;5104068;28;20023;-71
2024/01/10 05:47:30;;;;;;;109.72;52.15;;;-6.60;95.00;;;;;;5092624;28;20480;-71
2024/01/10 05:49:55;;;;;;;99.80;54.25;;;-6.60;95.10;;;;;;5090961;28;20298;-71
2024/01/10 05:52:22;;;;;;;96.65;54.78;;;-6.60;95.20;;;;;;5092380;28;20107;-71
2024/01/10 05:54:48;;;;;;;108.50;55.88;;;-6.60;95.40;;;;;;5091978;28;20343;-71
2024/01/10 05:57:16;;;;;;;100.53;55.75;;;-6.60;95.30;;;;;;5092696;28;20036;-71
2024/01/10 05:59:42;;;;;;;102.70;56.53;;;-6.60;95.30;;;;;;5091746;28;20044;-71
2024/01/10 06:02:08;;;;;;;102.43;55.28;;;-6.60;95.40;;;;;;5092056;28;20044;-72
2024/01/10 06:04:34;;;;;;;104.50;54.90;;;-6.60;95.40;;;;;;5091861;28;20040;-72
2024/01/10 06:07:01;;;;;;;100.47;54.90;;;-6.60;95.80;;;;;;5091478;28;20391;-72
2024/01/10 06:09:27;;;;;;;100.38;52.08;;;-6.60;95.90;;;;;;5091682;28;20052;-72
2024/01/10 06:11:53;;;;;;;101.18;53.63;;;-6.50;96.00;;;;;;5091758;28;20051;-72
2024/01/10 06:14:18;;;;;;;105.63;53.65;;;-6.50;96.10;;;;;;5091824;28;20492;-72
2024/01/10 06:16:44;;;;;;;96.53;54.92;;;-6.50;96.20;;;;;;5091635;28;20024;-72
2024/01/10 06:19:11;;;;;;;92.60;50.75;;;-6.50;96.40;;;;;;5091771;28;20047;-71
2024/01/10 06:21:37;;;;;;;103.75;55.97;;;-6.40;96.30;;;;;;5090816;28;20085;-70
2024/01/10 06:24:03;;;;;;;97.22;56.92;;;-6.40;96.50;;;;;;5091071;28;20154;-72
2024/01/10 06:26:29;;;;;;;95.53;53.03;;;-6.50;96.20;;;;;;5091132;28;20092;-71
2024/01/10 06:28:55;;;;;;;97.68;55.28;;;-6.50;96.30;;;;;;5088503;28;20150;-73
2024/01/10 06:31:20;;;;;;;90.78;51.33;;;-6.40;96.60;;;;;;5091489;28;20027;-72
2024/01/10 06:33:46;;;;;;;96.10;55.30;;;-6.40;96.60;;;;;;5091211;28;20028;-72
2024/01/10 06:36:12;;;;;;;99.43;55.10;;;-6.40;96.60;;;;;;5091467;28;20109;-72
2024/01/10 06:38:41;;;;;;;97.85;54.22;;;-6.40;96.70;;;;;;5091120;28;20027;-72
2024/01/10 06:41:10;;;;;;;97.95;55.88;;;-6.40;96.60;;;;;;5091372;28;20023;-71
2024/01/10 06:43:38;;;;;;;95.28;53.05;;;-6.30;96.70;;;;;;5088770;28;20032;-70
2024/01/10 06:46:04;;;;;;;103.40;53.03;;;-6.40;96.70;;;;;;5092537;28;20020;-71
2024/01/10 06:48:31;;;;;;;98.15;52.30;;;-6.30;96.70;;;;;;5095290;28;20024;-70
2024/01/10 06:50:57;;;;;;;100.78;55.53;;;-6.40;96.50;;;;;;5095124;28;20043;-72
2024/01/10 06:53:22;;;;;;;97.18;52.70;;;-6.30;96.60;;;;;;5095065;28;20093;-70
2024/01/10 06:55:48;;;;;;;93.95;53.10;;;-6.30;96.50;;;;;;5094907;28;20135;-69
2024/01/10 06:58:14;;;;;;;93.40;51.05;;;-6.20;96.50;;;;;;5092499;28;20016;-71
2024/01/10 07:00:39;;;;;;;97.80;54.15;;;-6.30;96.50;;;;;;5094717;28;20052;-71
2024/01/10 07:03:05;;;;;;;99.65;53.42;;;-6.30;96.40;;;;;;5094054;28;20119;-69
2024/01/10 07:05:31;;;;;;;95.85;52.35;;;-6.30;96.50;;;;;;5095030;28;20103;-71
2024/01/10 07:08:03;;;;;;;99.63;52.33;;;-6.30;96.60;;;;;;5094716;28;20031;-71
2024/01/10 07:10:29;;;;;;;100.53;53.75;;;-6.30;96.70;;;;;;5094997;28;20028;-71
2024/01/10 07:12:55;;;;;;;96.65;53.30;;;-6.30;96.90;;;;;;5091734;28;20368;-72
2024/01/10 07:15:21;;;;;;;97.78;54.28;;;-6.20;97.00;;;;;;5094583;28;20024;-72
2024/01/10 07:17:48;;;;;;;104.18;56.75;;;-6.20;97.10;;;;;;5094599;28;20032;-71
2024/01/10 07:20:13;;;;;;;100.60;55.47;;;-6.20;97.00;;;;;;5094659;28;20024;-71
2024/01/10 07:22:41;;;;;;;98.88;52.83;;;-6.20;97.00;;;;;;5094404;28;20081;-72
2024/01/10 07:25:09;;;;;;;99.10;54.42;;;-6.20;96.90;;;;;;5094283;28;20020;-72
2024/01/10 07:27:37;;;;;;;99.28;55.72;;;-6.20;96.90;;;;;;5094592;28;20734;-72
2024/01/10 07:30:05;;;;;;;98.25;53.92;;;-6.20;96.90;;;;;;5094081;28;20020;-71
2024/01/10 07:32:30;;;;;;;97.80;54.97;;;-6.20;96.90;;;;;;5094679;28;20055;-71
2024/01/10 07:34:58;;;;;;;100.13;55.13;;;-6.20;97.00;;;;;;5094156;28;20055;-71
2024/01/10 07:37:23;;;;;;;100.50;54.20;;;-6.20;97.00;;;;;;5095511;28;20032;-71
2024/01/10 07:39:50;;;;;;;101.55;54.03;;;-6.20;97.10;;;;;;5094134;28;20012;-72
2024/01/10 07:42:18;;;;;;;100.45;55.88;;;-6.10;97.20;;;;;;5094397;28;20072;-71
2024/01/10 07:44:43;;;;;;;95.15;56.38;;;-6.10;97.20;;;;;;5095032;28;20036;-72
2024/01/10 07:47:10;;;;;;;100.50;54.65;;;-6.10;97.00;;;;;;5094194;28;20174;-72
2024/01/10 07:49:36;;;;;;;102.07;53.00;;;-6.10;97.10;;;;;;5094071;28;20481;-72
2024/01/10 07:52:04;;;;;;;97.18;53.33;;;-6.00;97.10;;;;;;5093717;28;20031;-72
2024/01/10 07:54:31;;;;;;;94.68;52.30;;;-6.00;97.30;;;;;;5093879;28;20317;-73
2024/01/10 07:56:58;;;;;;;100.53;55.70;;;-5.90;97.20;;;;;;5092983;28;20081;-70
2024/01/10 07:59:24;;;;;;;97.93;53.45;;;-5.90;97.00;;;;;;5093613;28;20067;-72
2024/01/10 08:01:59;;;;;;;98.40;52.20;;;-5.90;97.00;;;;;;5093346;28;20028;-71
2024/01/10 08:04:29;;;;;;;96.75;52.60;;;-5.80;97.00;;;;;;5091254;28;20034;-71
2024/01/10 08:06:55;;;;;;;99.22;55.08;;;-5.70;96.70;;;;;;5093948;28;20024;-73
2024/01/10 08:09:24;;;;;;;97.15;55.78;;;-5.70;96.30;;;;;;5094447;28;20038;-73
2024/01/10 08:11:50;;;;;;;96.00;54.05;;;-5.70;96.20;;;;;;5093353;28;20024;-73
2024/01/10 08:14:16;;;;;;;91.28;52.55;;;-5.60;95.90;;;;;;5093529;28;20074;-72
2024/01/10 08:16:41;;;;;;;98.18;53.90;;;-5.60;95.90;;;;;;5092148;28;20035;-73
2024/01/10 08:19:07;;;;;;;93.15;52.85;;;-5.50;95.70;;;;;;5092848;28;20020;-72
2024/01/10 08:21:33;;;;;;;94.95;51.92;;;-5.50;95.50;;;;;;5093492;28;20476;-73
2024/01/10 08:23:59;;;;;;;92.93;52.80;;;-5.40;95.50;;;;;;5091989;28;20059;-73
2024/01/10 08:26:26;;;;;;;93.97;53.83;;;-5.40;95.30;;;;;;5094444;28;20084;-72
2024/01/10 08:28:52;;;;;;;94.85;55.03;;;-5.40;95.30;;;;;;5093757;28;20032;-73
2024/01/10 08:31:18;;;;;;;92.75;51.45;;;-5.30;95.20;;;;;;5093807;28;20433;-73
2024/01/10 08:33:43;;;;;;;92.97;52.97;;;-5.30;95.00;;;;;;5093911;28;20032;-72
2024/01/10 08:36:12;;;;;;;101.85;53.92;;;-5.30;95.10;;;;;;5093630;28;20115;-71
2024/01/10 08:38:38;;;;;;;88.35;50.38;;;-5.30;95.10;;;;;;5093636;28;20426;-72
2024/01/10 08:41:04;;;;;;;96.22;53.03;;;-5.20;95.20;;;;;;5091807;28;20020;-72
2024/01/10 08:43:30;;;;;;;95.60;51.95;;;-5.20;95.20;;;;;;5093766;28;20036;-72
2024/01/10 08:45:57;;;;;;;98.40;50.90;;;-5.10;95.10;;;;;;5093481;28;20020;-70
2024/01/10 08:48:23;;;;;;;98.57;53.42;;;-5.10;95.00;;;;;;5093758;28;20052;-70
2024/01/10 08:50:50;;;;;;;100.75;52.58;;;-5.10;95.00;;;;;;5093065;28;20465;-71
2024/01/10 08:53:16;;;;;;;86.55;47.33;;;-5.10;95.00;;;;;;5093364;28;20039;-70
2024/01/10 08:55:41;;;;;;;91.50;51.25;;;-5.00;95.00;;;;;;5093503;28;20102;-70
2024/01/10 08:58:07;;;;;;;83.43;48.35;;;-4.90;94.70;;;;;;5093193;28;20032;-70
2024/01/10 09:00:33;;;;;;;89.18;49.50;;;-4.80;94.60;;;;;;5093626;28;20043;-70
2024/01/10 09:03:00;;;;;;;86.15;46.70;;;-4.80;94.40;;;;;;5092911;28;20123;-71
2024/01/10 09:05:25;;;;;;;80.93;47.30;;;-4.70;94.20;;;;;;5093172;28;20426;-71
2024/01/10 09:07:53;;;;;;;80.13;45.13;;;-4.60;94.00;;;;;;5092890;28;20024;-72
2024/01/10 09:10:21;;;;;;;80.47;43.70;;;-4.60;93.50;;;;;;5092825;28;20073;-71
2024/01/10 09:12:47;;;;;;;82.53;46.05;;;-4.50;93.30;;;;;;5091827;28;20038;-71
2024/01/10 09:15:14;;;;;;;85.63;46.60;;;-4.40;93.10;;;;;;5092691;28;20020;-71
2024/01/10 09:17:43;;;;;;;87.55;43.67;;;-4.40;92.70;;;;;;5093189;28;20035;-71
2024/01/10 09:20:10;;;;;;;85.35;46.47;;;-4.30;92.70;;;;;;5092690;28;20027;-71
2024/01/10 09:22:36;;;;;;;87.00;44.55;;;-4.30;92.60;;;;;;5092980;28;20112;-71
2024/01/10 09:25:04;;;;;;;86.25;45.30;;;-4.20;92.60;;;;;;5092496;28;20032;-71
2024/01/10 09:27:33;;;;;;;85.55;43.90;;;-4.20;92.40;;;;;;5093017;28;20027;-71
2024/01/10 09:30:01;;;;;;;86.15;44.85;;;-4.20;92.50;;;;;;5092922;28;20378;-71
2024/01/10 09:32:28;;;;;;;88.18;45.72;;;-4.10;92.50;;;;;;5108159;28;20058;-70
2024/01/10 09:34:54;;;;;;;92.45;45.28;;;-4.10;92.30;;;;;;5113146;28;20110;-71
2024/01/10 09:37:19;;;;;;;97.20;45.40;;;-4.00;92.10;;;;;;5113149;28;20111;-71
2024/01/10 09:39:45;;;;;;;90.03;44.88;;;-4.00;92.00;;;;;;5113145;28;20027;-71
2024/01/10 09:42:11;;;;;;;90.28;46.33;;;-4.00;92.00;;;;;;5112477;28;20063;-71
2024/01/10 09:44:36;;;;;;;92.03;47.05;;;-3.90;92.00;;;;;;5113150;28;20114;-70
2024/01/10 09:47:02;;;;;;;90.90;47.92;;;-3.80;92.10;;;;;;5112707;28;20034;-71
2024/01/10 09:49:29;;;;;;;91.82;45.70;;;-3.80;92.10;;;;;;5112694;28;20456;-70
2024/01/10 09:52:01;;;;;;;93.57;47.33;;;-3.80;92.10;;;;;;5111175;28;20062;-71
2024/01/10 09:54:30;;;;;;;87.80;44.17;;;-3.70;92.20;;;;;;5091081;28;20115;-71
2024/01/10 09:56:58;;;;;;;85.90;45.47;;;-3.70;92.40;;;;;;5092082;28;20027;-71
2024/01/10 09:59:24;;;;;;;87.97;43.97;;;-3.60;92.60;;;;;;5092093;28;20447;-71
2024/01/10 10:01:51;;;;;;;88.50;45.45;;;-3.50;92.60;;;;;;5092263;28;20112;-70
2024/01/10 10:04:19;;;;;;;86.72;44.83;;;-3.50;92.60;;;;;;5091978;28;20039;-70
2024/01/10 10:06:45;;;;;;;84.97;42.45;;;-3.40;92.80;;;;;;5092083;28;20410;-71
2024/01/10 10:09:12;;;;;;;85.95;43.90;;;-3.20;92.80;;;;;;5091868;28;20057;-71
2024/01/10 10:11:37;;;;;;;84.53;42.78;;;-3.10;92.50;;;;;;5092459;28;20085;-72
2024/01/10 10:14:18;;;;;;;87.47;45.45;;;-2.90;92.50;;;;;;5091777;28;20028;-72
2024/01/10 10:16:44;;;;;;;76.78;42.85;;;-2.70;92.60;;;;;;5092329;28;20032;-72
2024/01/10 10:19:11;;;;;;;76.10;41.40;;;-2.50;92.50;;;;;;5090504;28;20077;-72
2024/01/10 10:21:37;;;;;;;80.07;39.35;;;-2.30;92.40;;;;;;5091392;28;20032;-72
2024/01/10 10:24:06;;;;;;;80.40;39.25;;;-2.10;92.10;;;;;;5090411;28;20047;-73
2024/01/10 10:26:33;;;;;;;74.30;37.53;;;-1.90;91.60;;;;;;5092029;28;20488;-72
2024/01/10 10:28:59;;;;;;;73.78;37.53;;;-1.70;91.00;;;;;;5091627;28;20518;-73
2024/01/10 10:31:25;;;;;;;73.88;36.90;;;-1.50;90.80;;;;;;5090823;28;20024;-73
2024/01/10 10:33:52;;;;;;;74.93;37.25;;;-1.30;90.50;;;;;;5091977;28;20028;-73
2024/01/10 10:36:19;;;;;;;72.93;37.38;;;-1.10;89.90;;;;;;5091266;28;20380;-73
2024/01/10 10:38:48;;;;;;;81.53;38.95;;;-1.00;88.90;;;;;;5091831;28;20110;-73
2024/01/10 10:41:14;;;;;;;73.00;37.95;;;-0.80;89.60;;;;;;5091425;28;20024;-72
2024/01/10 10:43:40;;;;;;;70.45;37.60;;;-0.60;90.00;;;;;;5091641;28;20030;-72
2024/01/10 10:46:14;;;;;;;68.18;35.78;;;-0.50;89.00;;;;;;5090314;28;20035;-72
2024/01/10 10:48:41;;;;;;;73.43;36.33;;;-0.40;87.30;;;;;;5091613;28;20024;-71
2024/01/10 10:51:29;;;;;;;72.45;36.75;;;-0.20;87.00;;;;;;5090160;28;20404;-73
2024/01/10 10:53:56;;;;;;;67.20;35.25;;;0.00;86.40;;;;;;5091795;28;20024;-72
2024/01/10 10:56:23;;;;;;;70.70;36.35;;;0.20;86.80;;;;;;5091247;28;20107;-71
2024/01/10 10:58:50;;;;;;;68.60;34.78;;;0.30;86.90;;;;;;5091402;28;20052;-71
2024/01/10 11:01:16;;;;;;;65.38;35.72;;;0.50;87.00;;;;;;5090951;28;20016;-72
2024/01/10 11:03:44;;;;;;;75.40;33.75;;;0.60;85.70;;;;;;5091117;28;20108;-72
2024/01/10 11:06:10;;;;;;;63.80;33.75;;;0.70;85.20;;;;;;5091020;28;20115;-72
2024/01/10 11:08:53;;;;;;;61.33;32.40;;;0.90;84.50;;;;;;5091193;28;20046;-72
2024/01/10 11:11:37;;;;;;;62.08;31.77;;;1.00;83.70;;;;;;5090828;28;20032;-72
2024/01/10 11:14:25;;;;;;;59.33;31.30;;;1.10;83.10;;;;;;5089647;28;20024;-74
2024/01/10 11:17:04;;;;;;;60.00;31.38;;;1.30;83.20;;;;;;5091657;28;20024;-72
2024/01/10 11:19:55;;;;;;;53.75;29.08;;;1.40;82.60;;;;;;5091440;28;20025;-72
2024/01/10 11:22:29;;;;;;;58.53;28.83;;;1.40;80.50;;;;;;5091033;28;20043;-72
2024/01/10 11:24:55;;;;;;;50.97;26.45;;;1.50;80.00;;;;;;5092832;28;20063;-72
2024/01/10 11:27:21;;;;;;;46.78;26.02;;;1.60;79.80;;;;;;5111580;28;20474;-72
2024/01/10 11:29:49;;;;;;;42.38;23.63;;;1.70;79.90;;;;;;5110372;28;20479;-72
2024/01/10 11:32:16;;;;;;;41.85;23.08;;;1.70;78.30;;;;;;5113108;28;20027;-72
2024/01/10 11:35:00;;;;;;;40.50;21.23;;;1.80;78.20;;;;;;5115221;28;20379;-72
2024/01/10 11:37:42;;;;;;;39.17;21.55;;;1.90;77.90;;;;;;5115544;28;20024;-72
2024/01/10 11:40:09;;;;;;;;;;;1.90;77.40;;;;;;5115499;28;20121;-72
2024/01/10 11:42:42;;;;;;;42.72;22.30;;;1.90;77.40;;;;;;5115307;28;19915;-73
2024/01/10 11:45:08;;;;;;;38.97;20.27;;;2.00;77.60;;;;;;5115006;28;20121;-73
2024/01/10 11:47:34;;;;;;;37.58;20.08;;;2.00;77.20;;;;;;5096108;28;20052;-72
2024/01/10 11:50:02;;;;;;;36.78;20.38;;;2.00;76.80;;;;;;5094524;28;20039;-72
2024/01/10 11:52:36;;;;;;;38.70;21.40;;;2.10;76.60;;;;;;5094928;28;20063;-72
2024/01/10 11:55:04;;;;;;;39.05;21.42;;;2.00;76.50;;;;;;5094225;28;20362;-75
2024/01/10 11:57:33;;;;;;;42.47;19.20;;;2.10;76.90;;;;;;5094825;28;20032;-72
2024/01/10 12:00:05;;;;;;;35.13;18.90;;;2.20;76.80;;;;;;5094424;28;20048;-72
2024/01/10 12:02:31;;;;;;;35.95;19.08;;;2.10;77.00;;;;;;5094694;28;20040;-73
2024/01/10 12:04:58;;;;;;;37.28;18.15;;;2.20;76.60;;;;;;5094640;28;20043;-72
2024/01/10 12:07:24;;;;;;;33.92;17.63;;;2.20;76.20;;;;;;5094281;28;20037;-72
2024/01/10 12:09:50;;;;;;;40.35;19.15;;;2.20;76.90;;;;;;5094593;28;20038;-72
2024/01/10 12:12:16;;;;;;;32.22;19.25;;;2.30;76.20;;;;;;5094095;28;20378;-72
2024/01/10 12:14:45;;;;;;;39.30;19.92;;;2.30;75.90;;;;;;5093133;28;20020;-72
2024/01/10 12:17:11;;;;;;;34.83;19.85;;;2.30;75.90;;;;;;5094151;28;20020;-72
2024/01/10 12:19:37;;;;;;;36.80;19.58;;;2.30;76.00;;;;;;5094272;28;20411;-72
2024/01/10 12:22:06;;;;;;;43.53;21.00;;;2.30;76.20;;;;;;5094072;28;20050;-72
2024/01/10 12:24:32;;;;;;;45.42;22.42;;;2.30;75.60;;;;;;5094237;28;20032;-72